ADDS METAR Data INFO
IDs: Format: Raw Decoded Include TAF

Data at: 0213 UTC 17 Aug 2018

METAR for:KIAH (Houston/Bush Intl, TX, US)
Text:KIAH 170153Z 17008KT 10SM FEW025 FEW250 30/26 A3003 RMK AO2 SLP166 T03000256
Temperature: 30.0°C ( 86°F)
Dewpoint: 25.6°C ( 78°F) [RH = 77%]
Pressure (altimeter):30.03 inches Hg (1017.0 mb) [Sea level pressure: 1016.6 mb]
Winds:from the S (170 degrees) at 9 MPH (8 knots; 4.1 m/s)
Visibility:10 or more sm (16+ km)
Ceiling:at least 12,000 feet AGL
Clouds: few clouds at 2500 feet AGL, few clouds at 25000 feet AGL

METAR for:KHOU (Houston/Hobby Arpt, TX, US)
Text:KHOU 170153Z 17007KT 10SM FEW035 SCT250 29/27 A3003 RMK AO2 SLP173 T02890267
Temperature: 28.9°C ( 84°F)
Dewpoint: 26.7°C ( 80°F) [RH = 88%]
Pressure (altimeter):30.03 inches Hg (1017.0 mb) [Sea level pressure: 1017.3 mb]
Winds:from the S (170 degrees) at 8 MPH (7 knots; 3.6 m/s)
Visibility:10 or more sm (16+ km)
Ceiling:at least 12,000 feet AGL
Clouds: few clouds at 3500 feet AGL, scattered clouds at 25000 feet AGL

METAR for:KGLS (Galveston/Scholes In, TX, US)
Text:KGLS 170152Z AUTO 17014KT 10SM FEW022 29/26 A3005 RMK AO2 SLP175 T02940256
Temperature: 29.4°C ( 85°F)
Dewpoint: 25.6°C ( 78°F) [RH = 80%]
Pressure (altimeter):30.05 inches Hg (1017.7 mb) [Sea level pressure: 1017.5 mb]
Winds:from the S (170 degrees) at 16 MPH (14 knots; 7.2 m/s)
Visibility:10 or more sm (16+ km)
Ceiling:at least 12,000 feet AGL
Clouds: few clouds at 2200 feet AGL
QC Flag:automated observation with no human augmentation

METAR for:KLVJ (Houston/Pearland Rgn, TX, US)
Text:KLVJ 170153Z AUTO 18006KT 10SM CLR 29/26 A3005 RMK AO2 SLP175 T02890256
Temperature: 28.9°C ( 84°F)
Dewpoint: 25.6°C ( 78°F) [RH = 82%]
Pressure (altimeter):30.05 inches Hg (1017.7 mb) [Sea level pressure: 1017.5 mb]
Winds:from the S (180 degrees) at 7 MPH (6 knots; 3.1 m/s)
Visibility:10 or more sm (16+ km)
Ceiling:at least 12,000 feet AGL
Clouds:sky clear below 12,000 feet AGL
QC Flag:automated observation with no human augmentation

METAR for:KSGR (Houston/Sugar Land R, TX, US)
Text:KSGR 170153Z 17011KT 10SM CLR 29/25 A3003 RMK AO2 SLP169 T02940250
Temperature: 29.4°C ( 85°F)
Dewpoint: 25.0°C ( 77°F) [RH = 77%]
Pressure (altimeter):30.03 inches Hg (1017.0 mb) [Sea level pressure: 1016.9 mb]
Winds:from the S (170 degrees) at 13 MPH (11 knots; 5.7 m/s)
Visibility:10 or more sm (16+ km)
Ceiling:at least 12,000 feet AGL
Clouds:sky clear below 12,000 feet AGL

METAR for:KDWH (Houston/Hooks Mem, TX, US)
Text:KDWH 170153Z 18005KT 10SM CLR 30/25 A3002 RMK AO2 SLP164 T03000250
Temperature: 30.0°C ( 86°F)
Dewpoint: 25.0°C ( 77°F) [RH = 75%]
Pressure (altimeter):30.02 inches Hg (1016.7 mb) [Sea level pressure: 1016.4 mb]
Winds:from the S (180 degrees) at 6 MPH (5 knots; 2.6 m/s)
Visibility:10 or more sm (16+ km)
Ceiling:at least 12,000 feet AGL
Clouds:sky clear below 12,000 feet AGL

METAR for:KCLL (College Station/East, TX, US)
Text:KCLL 170153Z 16014KT 10SM CLR 32/24 A3000 RMK AO2 SLP152 T03220239
Temperature: 32.2°C ( 90°F)
Dewpoint: 23.9°C ( 75°F) [RH = 62%]
Pressure (altimeter):30.00 inches Hg (1016.0 mb) [Sea level pressure: 1015.2 mb]
Winds:from the SSE (160 degrees) at 16 MPH (14 knots; 7.2 m/s)
Visibility:10 or more sm (16+ km)
Ceiling:at least 12,000 feet AGL
Clouds:sky clear below 12,000 feet AGL

METAR for:KUTS (Huntsville Muni, TX, US)
Text:KUTS 170153Z AUTO 17008KT 10SM CLR 31/23 A3002 RMK AO2 SLP158 T03060233
Temperature: 30.6°C ( 87°F)
Dewpoint: 23.3°C ( 74°F) [RH = 65%]
Pressure (altimeter):30.02 inches Hg (1016.7 mb) [Sea level pressure: 1015.8 mb]
Winds:from the S (170 degrees) at 9 MPH (8 knots; 4.1 m/s)
Visibility:10 or more sm (16+ km)
Ceiling:at least 12,000 feet AGL
Clouds:sky clear below 12,000 feet AGL
QC Flag:automated observation with no human augmentation

METAR for:KCXO (Conroe/Executive Arp, TX, US)
Text:KCXO 170153Z AUTO 16008KT 10SM CLR 29/26 A3003 RMK AO2 SLP166 T02890261
Temperature: 28.9°C ( 84°F)
Dewpoint: 26.1°C ( 79°F) [RH = 85%]
Pressure (altimeter):30.03 inches Hg (1017.0 mb) [Sea level pressure: 1016.6 mb]
Winds:from the SSE (160 degrees) at 9 MPH (8 knots; 4.1 m/s)
Visibility:10 or more sm (16+ km)
Ceiling:at least 12,000 feet AGL
Clouds:sky clear below 12,000 feet AGL
QC Flag:automated observation with no human augmentation

METAR for:KLBX (Angleton/Texas Gulf, TX, US)
Text:KLBX 170153Z AUTO 18006KT 10SM CLR 28/25 A3004 RMK AO2 SLP172 T02780250
Temperature: 27.8°C ( 82°F)
Dewpoint: 25.0°C ( 77°F) [RH = 85%]
Pressure (altimeter):30.04 inches Hg (1017.4 mb) [Sea level pressure: 1017.2 mb]
Winds:from the S (180 degrees) at 7 MPH (6 knots; 3.1 m/s)
Visibility:10 or more sm (16+ km)
Ceiling:at least 12,000 feet AGL
Clouds:sky clear below 12,000 feet AGL
QC Flag:automated observation with no human augmentation

METAR for:KPSX (Palacios Muni, TX, US)
Text:KPSX 170153Z AUTO 16013KT 10SM FEW020 30/27 A3002 RMK AO2 SLP166 T03000267
Temperature: 30.0°C ( 86°F)
Dewpoint: 26.7°C ( 80°F) [RH = 83%]
Pressure (altimeter):30.02 inches Hg (1016.7 mb) [Sea level pressure: 1016.6 mb]
Winds:from the SSE (160 degrees) at 15 MPH (13 knots; 6.7 m/s)
Visibility:10 or more sm (16+ km)
Ceiling:at least 12,000 feet AGL
Clouds: few clouds at 2000 feet AGL
QC Flag:automated observation with no human augmentation